Forest Falls, CA (92339)

9:32 PM PDT on September 22, 2014 (GMT -0700)
North Bench | Change Station
CLOSE
Current Station
Personal Weather Station
Location: Yucaipa, CA
Elevation: 2818 ft
Nearby Weather Stations

Elev 2818 ft 34.07 °N, 117.04 °W | Updated 6 seconds ago

Clear
Clear
66.6 °F
Feels Like 66.6 °F
N
0.0
Wind Variable Wind from WSW
Gusts 0.0 mph

Today
High -- | Low -- °F
--% Chance of Precip.
Yesterday
High -- | Low -- °F
Precip. -- in
6:36 AM 6:44 PM
Waning Crescent, 1% visible
Pressure 29.95 in
Visibility 10.0 miles
Clouds Clear
Dew Point 51 °F
Humidity 58%
Rainfall 0.00 in
Snow Depth 1 in , 0 in , 0 in
UV 0 out of 12
Pollen 6.60 out of 12
Ozone Good
Flu Activity Not available.
METAR KSBD 230350Z 24003KT 10SM SKC 24/14 A2995

More Conditions Fewer Conditions

Pressure 29.95 in
Visibility 10.0 miles
Clouds Clear
Dew Point 51 °F
Humidity 58%
Rainfall 0.00 in
Snow Depth 1 in , 0 in , 0 in
UV 0 out of 12
Pollen 6.60 out of 12
Ozone Good
Flu Activity Not available.
METAR KSBD 230350Z 24003KT 10SM SKC 24/14 A2995

More Conditions Fewer Conditions

10-Day Weather Forecast

Almanac

Astronomy

Sep. 22, 2014 Rise Set
Actual Time 6:36 AM PDT 6:44 PM PDT
Civil Twilight 6:11 AM PDT 7:09 PM PDT
Nautical Twilight 5:42 AM PDT 7:38 PM PDT
Astronomical Twilight 5:12 AM PDT 8:08 PM PDT
Moon 5:11 AM PDT (9/22) 5:53 PM PDT (9/22)
Length of Visible Light 12h 58m
Length of Day
12h 08m
Tomorrow will be 2m 6s shorter.
Waning Crescent, 1% of the Moon is Illuminated
Sep 23
Waning Crescent
Sep 24
New
Oct 1
First Quarter
Oct 8
Full
Oct 15
Last Quarter

Yesterday's Extremes

State Highs State Lows

Community

WunderPhotos

Upload Photos

1,755,612 photos uploaded!

Nearby

Air Quality

  Air Quality AQ Index Pollutant
Yesterday Moderate
OZONE
Current Good
OZONE
Tuesday Moderate
OZONE
Tuesday Good
PM10
Tuesday Good
CO
Tuesday Good
NO2

Snow Depth

Station Depth Elevation
Adin Mountain 1 in 6200 ft
Leavitt Lake 0 in 9400 ft
Burnside Lake 0 in 8139 ft
Summit Meadow 0 in 9122 ft
Leavitt Meadows 0 in 7200 ft

Earthquake Activity

City Distance Mag. Time & Date
Big Bear Lake, California 14 miles 2.5 7:26 AM PDT
2014-09-22
Borrego Springs, California 71 miles 2.6 7:34 AM PDT
2014-09-21
Inyokern, California 144 miles 3.1 5:33 PM PDT
2014-09-19
Minimum magnitude displayed is 2.5.

Coastal Water Temperatures

Place Temperature
No Stations Reporting

Nearby Weather Stations